Аэропорт: Магнитогорск. Магнитогорск

ICAO: USCM

METAR:
2022-06-26 10:30:00
USCM 261030Z 32007MPS 9999 SCT040 18/05 Q1008 R36/090060 TEMPO 31015MPS RMK QFE718
METAR:
Информация по данной станции не доступна